createdAt,value
2022-12-23T00:01:15.346Z,100345.88
2022-12-23T00:03:42.880Z,100348.53
2022-12-23T00:06:15.218Z,100344.69
2022-12-23T00:08:42.791Z,100345.44
2022-12-23T00:11:16.326Z,100348.81
2022-12-23T00:14:01.493Z,100343.94
2022-12-23T00:16:28.134Z,100355.31
2022-12-23T00:18:55.419Z,100354.56
2022-12-23T00:21:23.018Z,100365.94
2022-12-23T00:23:50.954Z,100370.06
2022-12-23T00:26:20.823Z,100368.28
2022-12-23T00:28:47.413Z,100377.41
2022-12-23T00:31:14.869Z,100379.63
2022-12-23T00:33:44.089Z,100378.16
2022-12-23T00:36:19.300Z,100377.41
2022-12-23T00:39:04.969Z,100387.31
2022-12-23T00:41:50.337Z,100389.94
2022-12-23T00:44:16.853Z,100389.22
2022-12-23T00:46:43.406Z,100390.38
2022-12-23T00:49:34.972Z,100386.25
2022-12-23T00:52:03.369Z,100380.63
2022-12-23T00:54:31.824Z,100394.34
2022-12-23T00:56:59.269Z,100387.56
2022-12-23T00:59:25.845Z,100390.22
2022-12-23T01:02:11.147Z,100397.88
2022-12-23T01:04:56.243Z,100400.97
2022-12-23T01:07:24.876Z,100405.09
2022-12-23T01:09:51.474Z,100403.91
2022-12-23T01:12:18.328Z,100397.13
2022-12-23T01:14:44.762Z,100401.69
2022-12-23T01:17:11.663Z,100397.56
2022-12-23T01:19:38.421Z,100405.53
2022-12-23T01:22:05.037Z,100406.69
2022-12-23T01:24:32.440Z,100415.84
2022-12-23T01:26:59.511Z,100412.44
2022-12-23T01:29:26.299Z,100419.66
2022-12-23T01:31:52.952Z,100424.97
2022-12-23T01:34:19.537Z,100424.22
2022-12-23T01:36:46.023Z,100426.88
2022-12-23T01:39:12.488Z,100434.41
2022-12-23T01:41:57.280Z,100430.28
2022-12-23T01:44:45.552Z,100431.03
2022-12-23T01:47:19.414Z,100436.34
2022-12-23T01:49:47.285Z,100445.03
2022-12-23T01:52:14.766Z,100440.16
2022-12-23T01:54:43.905Z,100446.94
2022-12-23T01:57:11.095Z,100445.03
2022-12-23T01:59:56.150Z,100451.09
2022-12-23T02:02:41.709Z,100462.88
2022-12-23T02:05:08.453Z,100470.09
2022-12-23T02:07:54.093Z,100470.09
2022-12-23T02:10:22.819Z,100469.34
2022-12-23T02:13:06.710Z,100482.63
2022-12-23T02:16:09.305Z,100481.59
2022-12-23T02:19:00.137Z,100485.28
2022-12-23T02:21:51.431Z,100484.53
2022-12-23T02:24:32.846Z,100487.66
2022-12-23T02:27:18.001Z,100494.44
2022-12-23T02:30:06.333Z,100494.13
2022-12-23T02:33:00.344Z,100502.09
2022-12-23T02:36:03.256Z,100505.63
2022-12-23T02:38:41.621Z,100505.72
2022-12-23T02:41:38.293Z,100507.97
2022-12-23T02:44:36.412Z,100511.78
2022-12-23T02:47:11.255Z,100511.47
2022-12-23T02:49:43.366Z,100517.94
2022-12-23T02:52:15.819Z,100525.59
2022-12-23T02:54:47.137Z,100531.03
2022-12-23T02:57:17.635Z,100532.63
2022-12-23T02:59:50.978Z,100532.44
2022-12-23T03:02:18.374Z,100537.41
2022-12-23T03:04:44.991Z,100539.75
2022-12-23T03:07:20.885Z,100541.66
2022-12-23T03:10:08.477Z,100546.22
2022-12-23T03:13:00.206Z,100541.34
2022-12-23T03:15:38.901Z,100543.38
2022-12-23T03:18:31.417Z,100537.03
2022-12-23T03:21:22.385Z,100538.66
2022-12-23T03:23:56.152Z,100530.06
2022-12-23T03:26:31.135Z,100530.47
2022-12-23T03:29:05.305Z,100533.88
2022-12-23T03:31:34.828Z,100527.41
2022-12-23T03:34:09.860Z,100534.19
2022-12-23T03:36:49.088Z,100530.38
2022-12-23T03:39:20.480Z,100528.88
2022-12-23T03:42:00.249Z,100532.72
2022-12-23T03:44:38.253Z,100535.06
2022-12-23T03:47:28.413Z,100538.09
2022-12-23T03:50:03.842Z,100552.53
2022-12-23T03:52:41.930Z,100539.38
2022-12-23T03:55:16.419Z,100535.25
2022-12-23T03:58:32.464Z,100539.06
2022-12-23T04:01:18.183Z,100536.53
2022-12-23T04:04:11.229Z,100560.06
2022-12-23T04:06:51.857Z,100555.19
2022-12-23T04:09:22.394Z,100564.31
2022-12-23T04:11:49.512Z,100552.97
2022-12-23T04:14:20.571Z,100564.31
2022-12-23T04:16:49.616Z,100570.78
2022-12-23T04:19:16.322Z,100581.38
2022-12-23T04:21:42.770Z,100581.81
2022-12-23T04:24:09.258Z,100590.94
2022-12-23T04:26:35.698Z,100585.63
2022-12-23T04:29:02.256Z,100592.84
2022-12-23T04:31:28.837Z,100592.84
2022-12-23T04:33:55.502Z,100589.47
2022-12-23T04:36:21.980Z,100586.81
2022-12-23T04:38:48.705Z,100587.88
2022-12-23T04:41:15.196Z,100584.78
2022-12-23T04:43:41.692Z,100586.69
2022-12-23T04:46:08.183Z,100583.31
2022-12-23T04:48:35.955Z,100584.38
2022-12-23T04:51:03.288Z,100585.84
2022-12-23T04:53:29.900Z,100575.25
2022-12-23T04:55:56.359Z,100572.91
2022-12-23T04:58:24.926Z,100573.22
2022-12-23T05:01:02.090Z,100569.09
2022-12-23T05:03:28.741Z,100571.00
2022-12-23T05:05:55.238Z,100578.22
2022-12-23T05:08:21.786Z,100570.69
2022-12-23T05:10:48.385Z,100571.41
2022-12-23T05:13:15.151Z,100571.41
2022-12-23T05:15:44.968Z,100571.41
2022-12-23T05:18:12.090Z,100579.38
2022-12-23T05:20:38.739Z,100575.56
2022-12-23T05:23:05.265Z,100580.44
2022-12-23T05:25:36.440Z,100596.78
2022-12-23T05:28:03.838Z,100594.22
2022-12-23T05:30:30.553Z,100604.09
2022-12-23T05:32:57.197Z,100599.53
2022-12-23T05:35:25.579Z,100602.59
2022-12-23T05:37:52.956Z,100599.94
2022-12-23T05:40:23.695Z,100614.38
2022-12-23T05:42:54.082Z,100615.53
2022-12-23T05:45:20.894Z,100622.00
2022-12-23T05:47:47.497Z,100628.47
2022-12-23T05:50:14.306Z,100622.00
2022-12-23T05:52:41.009Z,100621.28
2022-12-23T05:55:08.251Z,100619.03
2022-12-23T05:57:34.699Z,100627.00
2022-12-23T06:00:01.161Z,100619.03
2022-12-23T06:02:27.806Z,100617.88
2022-12-23T06:04:54.419Z,100622.00
2022-12-23T06:07:20.870Z,100608.75
2022-12-23T06:09:47.380Z,100616.72
2022-12-23T06:12:13.852Z,100609.19
2022-12-23T06:14:40.317Z,100611.41
2022-12-23T06:17:06.871Z,100608.34
2022-12-23T06:19:33.399Z,100610.56
2022-12-23T06:22:01.064Z,100592.41
2022-12-23T06:24:27.525Z,100593.16
2022-12-23T06:26:57.278Z,100586.81
2022-12-23T06:29:24.895Z,100590.19
2022-12-23T06:31:51.550Z,100588.72
2022-12-23T06:34:18.197Z,100588.28
2022-12-23T06:36:44.685Z,100586.38
2022-12-23T06:39:11.496Z,100603.78
2022-12-23T06:41:37.988Z,100606.44
2022-12-23T06:44:04.754Z,100601.88
2022-12-23T06:46:31.506Z,100610.13
2022-12-23T06:48:58.075Z,100613.53
2022-12-23T06:51:24.568Z,100610.47
2022-12-23T06:53:51.194Z,100618.00
2022-12-23T06:56:18.488Z,100627.44
2022-12-23T06:58:45.095Z,100623.59
2022-12-23T07:01:11.876Z,100627.00
2022-12-23T07:03:38.427Z,100630.81
2022-12-23T07:06:05.239Z,100626.25
2022-12-23T07:08:31.698Z,100631.56
2022-12-23T07:11:03.421Z,100639.09
2022-12-23T07:13:30.194Z,100635.69
2022-12-23T07:15:56.670Z,100639.94
2022-12-23T07:18:23.945Z,100649.81
2022-12-23T07:20:51.595Z,100647.16
2022-12-23T07:23:18.589Z,100651.28
2022-12-23T07:25:45.066Z,100655.84
2022-12-23T07:28:11.487Z,100660.41
2022-12-23T07:30:37.991Z,100662.31
2022-12-23T07:33:04.426Z,100661.56
2022-12-23T07:35:31.039Z,100657.03
2022-12-23T07:37:57.786Z,100657.75
2022-12-23T07:40:25.631Z,100652.47
2022-12-23T07:42:57.669Z,100643.03
2022-12-23T07:45:25.448Z,100634.75
2022-12-23T07:47:56.062Z,100636.53
2022-12-23T07:50:23.150Z,100630.81
2022-12-23T07:52:49.582Z,100641.44
2022-12-23T07:55:16.279Z,100632.72
2022-12-23T07:57:42.807Z,100627.84
2022-12-23T08:00:13.946Z,100624.47
2022-12-23T08:02:40.966Z,100635.06
2022-12-23T08:05:08.747Z,100630.19
2022-12-23T08:07:35.738Z,100628.59
2022-12-23T08:10:02.696Z,100627.44
2022-12-23T08:12:29.197Z,100624.03
2022-12-23T08:14:55.762Z,100615.34
2022-12-23T08:17:26.609Z,100620.22
2022-12-23T08:19:53.091Z,100620.53
2022-12-23T08:22:19.851Z,100623.59
2022-12-23T08:24:46.421Z,100610.78
2022-12-23T08:27:12.906Z,100623.28
2022-12-23T08:29:40.121Z,100619.47
2022-12-23T08:32:07.396Z,100614.16
2022-12-23T08:34:34.403Z,100610.34
2022-12-23T08:37:01.430Z,100601.22
2022-12-23T08:39:28.239Z,100601.97
2022-12-23T08:41:54.774Z,100594.00
2022-12-23T08:44:21.871Z,100596.66
2022-12-23T08:46:48.554Z,100606.84
2022-12-23T08:49:15.189Z,100604.19
2022-12-23T08:51:42.508Z,100592.84
2022-12-23T08:54:10.130Z,100589.03
2022-12-23T08:56:40.240Z,100583.28
2022-12-23T08:59:07.621Z,100583.72
2022-12-23T09:01:34.772Z,100578.00
2022-12-23T09:04:06.213Z,100574.91
2022-12-23T09:06:36.268Z,100568.88
2022-12-23T09:09:03.729Z,100572.25
2022-12-23T09:11:30.403Z,100573.75
2022-12-23T09:13:59.711Z,100554.44
2022-12-23T09:16:26.989Z,100559.75
2022-12-23T09:18:53.574Z,100563.13
2022-12-23T09:21:22.461Z,100566.53
2022-12-23T09:23:49.203Z,100564.22
2022-12-23T09:26:24.729Z,100560.41
2022-12-23T09:28:51.484Z,100551.69
2022-12-23T09:31:18.737Z,100549.78
2022-12-23T09:33:50.525Z,100555.84
2022-12-23T09:36:17.960Z,100555.09
2022-12-23T09:38:45.012Z,100556.91
2022-12-23T09:41:26.758Z,100563.69
2022-12-23T09:43:57.706Z,100559.13
2022-12-23T09:46:27.519Z,100559.13
2022-12-23T09:49:03.008Z,100552.94
2022-12-23T09:51:30.613Z,100548.38
2022-12-23T09:54:21.079Z,100536.16
2022-12-23T09:57:22.353Z,100533.50
2022-12-23T10:00:11.384Z,100514.94
2022-12-23T10:03:00.288Z,100508.78
2022-12-23T10:05:51.855Z,100501.13
2022-12-23T10:08:39.457Z,100499.53
2022-12-23T10:11:14.757Z,100491.16
2022-12-23T10:13:45.634Z,100489.97
2022-12-23T10:16:18.882Z,100479.06
2022-12-23T10:18:55.618Z,100481.69
2022-12-23T10:21:35.260Z,100482.00
2022-12-23T10:24:20.104Z,100476.59
2022-12-23T10:26:54.300Z,100471.28
2022-12-23T10:29:26.138Z,100471.59
2022-12-23T10:32:07.065Z,100468.94
2022-12-23T10:35:15.231Z,100469.25
2022-12-23T10:37:51.609Z,100468.94
2022-12-23T10:40:24.755Z,100468.50
2022-12-23T10:43:39.120Z,100464.69
2022-12-23T10:46:33.798Z,100459.69
2022-12-23T10:49:15.655Z,100457.78
2022-12-23T10:51:57.545Z,100447.91
2022-12-23T10:54:26.692Z,100442.91
2022-12-23T10:56:54.523Z,100444.38
2022-12-23T10:59:26.456Z,100437.91
2022-12-23T11:02:15.415Z,100438.66
2022-12-23T11:04:47.170Z,100426.84
2022-12-23T11:07:43.393Z,100426.00
2022-12-23T11:10:13.105Z,100421.84
2022-12-23T11:12:45.663Z,100419.94
2022-12-23T11:15:32.730Z,100417.16
2022-12-23T11:18:06.542Z,100413.78
2022-12-23T11:20:35.278Z,100422.47
2022-12-23T11:23:04.483Z,100423.22
2022-12-23T11:25:38.313Z,100423.97
2022-12-23T11:28:10.634Z,100423.50
2022-12-23T11:30:57.651Z,100416.00
2022-12-23T11:33:27.993Z,100409.22
2022-12-23T11:36:08.438Z,100403.47
2022-12-23T11:38:37.434Z,100392.09
2022-12-23T11:41:05.047Z,100384.16
2022-12-23T11:43:32.685Z,100365.56
2022-12-23T11:46:15.092Z,100358.63
2022-12-23T11:48:41.689Z,100337.38
2022-12-23T11:51:08.468Z,100340.78
2022-12-23T11:53:36.639Z,100344.19
2022-12-23T11:56:08.830Z,100334.28
2022-12-23T11:59:02.628Z,100316.47
2022-12-23T12:01:29.249Z,100314.97
2022-12-23T12:04:00.401Z,100307.75
2022-12-23T12:06:28.074Z,100308.19
2022-12-23T12:08:57.746Z,100306.28
2022-12-23T12:11:31.819Z,100301.72
2022-12-23T12:14:07.731Z,100302.88
2022-12-23T12:16:40.336Z,100293.75
2022-12-23T12:19:35.664Z,100288.00
2022-12-23T12:22:13.578Z,100288.00
2022-12-23T12:24:50.473Z,100282.69
2022-12-23T12:27:20.744Z,100287.69
2022-12-23T12:29:52.868Z,100281.22
2022-12-23T12:32:30.220Z,100267.94
2022-12-23T12:35:08.699Z,100255.84
2022-12-23T12:37:45.260Z,100242.56
2022-12-23T12:40:18.055Z,100232.13
2022-12-23T12:42:52.269Z,100233.59
2022-12-23T12:45:32.131Z,100226.38
2022-12-23T12:48:33.901Z,100217.69
2022-12-23T12:51:13.065Z,100208.97
2022-12-23T12:54:10.441Z,100201.00
2022-12-23T12:56:46.173Z,100193.06
2022-12-23T12:59:25.931Z,100189.66
2022-12-23T13:02:07.660Z,100181.69
2022-12-23T13:05:00.901Z,100179.31
2022-12-23T13:07:47.284Z,100175.94
2022-12-23T13:10:32.432Z,100177.41
2022-12-23T13:13:19.133Z,100164.88
2022-12-23T13:15:59.447Z,100161.47
2022-12-23T13:18:53.560Z,100159.56
2022-12-23T13:21:45.065Z,100161.78
2022-12-23T13:24:25.359Z,100161.03
2022-12-23T13:27:10.860Z,100174.31
2022-12-23T13:29:39.969Z,100157.22
2022-12-23T13:32:28.669Z,100160.59
2022-12-23T13:35:07.810Z,100145.13
2022-12-23T13:37:54.157Z,100145.13
2022-12-23T13:40:59.084Z,100144.38
2022-12-23T13:43:35.718Z,100143.19
2022-12-23T13:46:11.046Z,100162.81
2022-12-23T13:48:53.511Z,100153.69
2022-12-23T13:51:48.662Z,100143.06
2022-12-23T13:54:27.579Z,100123.75
2022-12-23T13:57:31.845Z,100120.34
2022-12-23T14:00:20.406Z,100098.06
2022-12-23T14:02:57.629Z,100103.81
2022-12-23T14:05:41.983Z,100095.88
2022-12-23T14:08:39.169Z,100089.09
2022-12-23T14:11:08.665Z,100067.28
2022-12-23T14:13:45.914Z,100054.75
2022-12-23T14:16:21.161Z,100061.09
2022-12-23T14:19:18.408Z,100065.50
2022-12-23T14:22:10.233Z,100072.13
2022-12-23T14:24:51.966Z,100069.47
2022-12-23T14:27:33.611Z,100077.44
2022-12-23T14:30:21.430Z,100063.88
2022-12-23T14:32:54.981Z,100052.53
2022-12-23T14:35:27.865Z,100056.78
2022-12-23T14:38:08.170Z,100051.94
2022-12-23T14:40:37.609Z,100060.81
2022-12-23T14:43:22.427Z,100063.28
2022-12-23T14:45:55.082Z,100061.84
2022-12-23T14:48:33.630Z,100062.53
2022-12-23T14:51:09.246Z,100076.28
2022-12-23T14:53:58.099Z,100084.50
2022-12-23T14:56:43.664Z,100081.84
2022-12-23T14:59:34.407Z,100071.97
2022-12-23T15:02:22.029Z,100062.53
2022-12-23T15:04:54.676Z,100057.72
2022-12-23T15:07:27.720Z,100064.03
2022-12-23T15:10:01.089Z,100062.28
2022-12-23T15:12:34.844Z,100056.66
2022-12-23T15:15:14.762Z,100049.44
2022-12-23T15:17:41.775Z,100054.03
2022-12-23T15:20:11.211Z,100039.28
2022-12-23T15:22:39.350Z,100040.00
2022-12-23T15:25:20.292Z,100042.06
2022-12-23T15:27:47.157Z,100048.56
2022-12-23T15:30:15.088Z,100055.34
2022-12-23T15:32:44.161Z,100045.91
2022-12-23T15:35:18.948Z,100044.44
2022-12-23T15:37:48.886Z,100038.84
2022-12-23T15:40:36.232Z,100032.06
2022-12-23T15:43:18.427Z,100044.13
2022-12-23T15:45:45.166Z,100037.22
2022-12-23T15:48:32.490Z,100010.38
2022-12-23T15:51:05.083Z,100032.06
2022-12-23T15:53:35.222Z,100036.63
2022-12-23T15:56:07.175Z,100052.84
2022-12-23T15:58:35.451Z,100053.13
2022-12-23T16:01:02.038Z,100047.81
2022-12-23T16:03:40.338Z,100063.31
2022-12-23T16:06:19.349Z,100062.56
2022-12-23T16:08:55.259Z,100056.53
2022-12-23T16:11:22.850Z,100054.31
2022-12-23T16:14:01.372Z,100063.00
2022-12-23T16:16:40.771Z,100068.75
2022-12-23T16:19:39.121Z,100060.78
2022-12-23T16:22:27.184Z,100052.69
2022-12-23T16:25:08.137Z,100049.28
2022-12-23T16:27:38.597Z,100051.94
2022-12-23T16:30:27.889Z,100047.38
2022-12-23T16:32:56.823Z,100047.09
2022-12-23T16:35:34.449Z,100041.03
2022-12-23T16:38:17.968Z,100041.91
2022-12-23T16:40:50.226Z,100063.59
2022-12-23T16:43:17.526Z,100060.19
2022-12-23T16:45:45.955Z,100054.44
2022-12-23T16:48:50.020Z,100064.19
2022-12-23T16:51:20.169Z,100059.31
2022-12-23T16:53:51.573Z,100065.66
2022-12-23T16:56:20.663Z,100063.75
2022-12-23T16:58:47.844Z,100061.81
2022-12-23T17:01:17.345Z,100067.13
2022-12-23T17:03:43.889Z,100073.19
2022-12-23T17:06:14.892Z,100073.47
2022-12-23T17:08:42.121Z,100074.94
2022-12-23T17:11:22.779Z,100079.09
2022-12-23T17:13:49.583Z,100081.72
2022-12-23T17:16:21.420Z,100081.00
2022-12-23T17:18:48.803Z,100065.06
2022-12-23T17:21:29.412Z,100062.13
2022-12-23T17:24:03.350Z,100081.88
2022-12-23T17:26:30.005Z,100085.13
2022-12-23T17:28:56.574Z,100085.84
2022-12-23T17:31:27.061Z,100077.44
2022-12-23T17:33:54.432Z,100081.59
2022-12-23T17:36:21.845Z,100078.94
2022-12-23T17:38:48.466Z,100078.94
2022-12-23T17:41:23.245Z,100081.59
2022-12-23T17:43:49.745Z,100082.63
2022-12-23T17:46:16.346Z,100081.00
2022-12-23T17:48:42.879Z,100080.13
2022-12-23T17:51:15.182Z,100076.28
2022-12-23T17:53:42.336Z,100073.16
2022-12-23T17:56:14.359Z,100077.59
2022-12-23T17:58:42.388Z,100069.91
2022-12-23T18:01:17.875Z,100077.44
2022-12-23T18:03:44.443Z,100075.06
2022-12-23T18:06:15.859Z,100087.47
2022-12-23T18:08:42.709Z,100084.97
2022-12-23T18:11:27.561Z,100083.78
2022-12-23T18:13:54.277Z,100095.13
2022-12-23T18:16:20.923Z,100091.16
2022-12-23T18:18:47.541Z,100093.66
2022-12-23T18:21:26.275Z,100100.75
2022-12-23T18:23:54.877Z,100098.69
2022-12-23T18:26:21.378Z,100097.50
2022-12-23T18:28:47.988Z,100107.22
2022-12-23T18:31:20.352Z,100110.16
2022-12-23T18:33:47.691Z,100110.44
2022-12-23T18:36:33.133Z,100113.84
2022-12-23T18:38:59.934Z,100118.72
2022-12-23T18:41:27.380Z,100126.22
2022-12-23T18:43:54.698Z,100124.31
2022-12-23T18:46:21.414Z,100131.84
2022-12-23T18:48:48.399Z,100134.06
2022-12-23T18:51:16.456Z,100140.09
2022-12-23T18:53:43.567Z,100146.16
2022-12-23T18:56:20.815Z,100154.41
2022-12-23T18:58:47.296Z,100149.84
2022-12-23T19:01:15.945Z,100150.56
2022-12-23T19:03:43.488Z,100144.53
2022-12-23T19:06:13.241Z,100150.56
2022-12-23T19:08:41.318Z,100161.66
2022-12-23T19:11:16.383Z,100158.25
2022-12-23T19:13:43.250Z,100153.69
2022-12-23T19:16:20.530Z,100157.81
2022-12-23T19:18:48.235Z,100163.13
2022-12-23T19:21:15.826Z,100159.72
2022-12-23T19:23:43.109Z,100155.88
2022-12-23T19:26:10.730Z,100157.81
2022-12-23T19:28:39.033Z,100163.13
2022-12-23T19:31:14.091Z,100164.59
2022-12-23T19:33:42.356Z,100169.16
2022-12-23T19:36:14.185Z,100186.28
2022-12-23T19:38:40.629Z,100184.66
2022-12-23T19:41:07.494Z,100185.13
2022-12-23T19:43:34.981Z,100182.47
2022-12-23T19:46:04.418Z,100180.97
2022-12-23T19:48:31.120Z,100187.75
2022-12-23T19:51:12.972Z,100195.72
2022-12-23T19:53:40.961Z,100203.72
2022-12-23T19:56:13.427Z,100199.13
2022-12-23T19:58:42.005Z,100217.28
2022-12-23T20:01:12.839Z,100214.91
2022-12-23T20:03:40.484Z,100225.53
2022-12-23T20:06:08.507Z,100228.50
2022-12-23T20:08:35.077Z,100230.41
2022-12-23T20:11:03.768Z,100233.06
2022-12-23T20:13:30.399Z,100235.00
2022-12-23T20:15:56.903Z,100242.22
2022-12-23T20:18:23.341Z,100243.69
2022-12-23T20:20:49.869Z,100228.22
2022-12-23T20:23:16.378Z,100242.97
2022-12-23T20:25:43.009Z,100242.53
2022-12-23T20:28:09.497Z,100244.00
2022-12-23T20:30:36.029Z,100245.91
2022-12-23T20:33:02.542Z,100248.56
2022-12-23T20:35:30.129Z,100257.28
2022-12-23T20:37:56.642Z,100263.78
2022-12-23T20:40:23.123Z,100275.13
2022-12-23T20:42:49.605Z,100264.06
2022-12-23T20:45:16.245Z,100261.84
2022-12-23T20:47:42.760Z,100276.63
2022-12-23T20:50:09.435Z,100277.34
2022-12-23T20:52:35.953Z,100287.97
2022-12-23T20:55:02.494Z,100292.13
2022-12-23T20:57:29.017Z,100300.09
2022-12-23T20:59:55.450Z,100302.75
2022-12-23T21:02:21.934Z,100308.34
2022-12-23T21:04:48.438Z,100312.19
2022-12-23T21:07:14.950Z,100314.84
2022-12-23T21:09:41.370Z,100326.94
2022-12-23T21:12:07.810Z,100317.81
2022-12-23T21:14:34.338Z,100322.38
2022-12-23T21:17:00.798Z,100330.06
2022-12-23T21:19:27.640Z,100334.19
2022-12-23T21:21:54.167Z,100338.75
2022-12-23T21:24:21.119Z,100346.00
2022-12-23T21:26:55.382Z,100350.88
2022-12-23T21:29:23.467Z,100350.13
2022-12-23T21:31:50.027Z,100345.25
2022-12-23T21:34:17.830Z,100358.84
2022-12-23T21:36:44.376Z,100369.47
2022-12-23T21:39:15.016Z,100369.47
2022-12-23T21:41:41.813Z,100372.56
2022-12-23T21:44:10.150Z,100365.75
2022-12-23T21:46:36.681Z,100374.91
2022-12-23T21:49:03.640Z,100371.97
2022-12-23T21:51:39.079Z,100387.91
2022-12-23T21:54:07.420Z,100393.94
2022-12-23T21:56:34.355Z,100395.88
2022-12-23T21:59:11.373Z,100390.25
2022-12-23T22:01:38.076Z,100398.22
2022-12-23T22:04:05.077Z,100398.66
2022-12-23T22:06:35.855Z,100402.50
2022-12-23T22:09:03.387Z,100405.59
2022-12-23T22:11:31.919Z,100409.56
2022-12-23T22:14:00.391Z,100408.22
2022-12-23T22:16:28.540Z,100430.78
2022-12-23T22:18:56.832Z,100424.44
2022-12-23T22:21:25.466Z,100429.13
2022-12-23T22:23:53.129Z,100437.97
2022-12-23T22:26:26.291Z,100448.72
2022-12-23T22:28:55.435Z,100452.97
2022-12-23T22:31:36.842Z,100454.16
2022-12-23T22:34:04.674Z,100452.69
2022-12-23T22:36:31.293Z,100466.69
2022-12-23T22:38:59.792Z,100463.72
2022-12-23T22:41:28.043Z,100478.50
2022-12-23T22:43:55.125Z,100475.09
2022-12-23T22:46:21.918Z,100472.44
2022-12-23T22:48:48.532Z,100474.03
2022-12-23T22:51:18.030Z,100482.44
2022-12-23T22:53:45.181Z,100486.56
2022-12-23T22:56:13.719Z,100467.69
2022-12-23T22:58:40.252Z,100490.84
2022-12-23T23:01:07.428Z,100494.22
2022-12-23T23:03:34.017Z,100503.69
2022-12-23T23:06:07.109Z,100482.44
2022-12-23T23:08:34.689Z,100497.63
2022-12-23T23:11:05.021Z,100513.13
2022-12-23T23:13:34.630Z,100499.41
2022-12-23T23:16:02.415Z,100512.69
2022-12-23T23:18:30.243Z,100518.44
2022-12-23T23:20:56.988Z,100515.78
2022-12-23T23:23:23.543Z,100507.81
2022-12-23T23:25:50.158Z,100514.59
2022-12-23T23:28:16.776Z,100514.31
2022-12-23T23:30:43.512Z,100517.69
2022-12-23T23:33:10.645Z,100513.13
2022-12-23T23:35:37.564Z,100519.91
2022-12-23T23:38:04.082Z,100530.53
2022-12-23T23:40:30.604Z,100528.31
2022-12-23T23:42:57.088Z,100544.25
2022-12-23T23:45:23.591Z,100538.94
2022-12-23T23:47:50.154Z,100549.13
2022-12-23T23:50:16.778Z,100548.81
2022-12-23T23:52:43.299Z,100560.91
2022-12-23T23:55:10.382Z,100555.19
2022-12-23T23:57:37.140Z,100560.50
